sensor_id;sensor_type;location;lat;lon;timestamp;temperature;humidity
15203;DHT22;7702;51.046;5.184;2022-07-29T00:01:53;18.00;99.90
15203;DHT22;7702;51.046;5.184;2022-07-29T00:04:19;18.00;99.90
15203;DHT22;7702;51.046;5.184;2022-07-29T00:06:45;18.00;99.90
15203;DHT22;7702;51.046;5.184;2022-07-29T00:09:10;18.00;99.90
15203;DHT22;7702;51.046;5.184;2022-07-29T00:11:36;18.10;99.90
15203;DHT22;7702;51.046;5.184;2022-07-29T00:14:03;18.00;99.90
15203;DHT22;7702;51.046;5.184;2022-07-29T00:16:28;18.00;99.90
15203;DHT22;7702;51.046;5.184;2022-07-29T00:18:54;18.00;99.90
15203;DHT22;7702;51.046;5.184;2022-07-29T00:21:21;18.00;99.90
15203;DHT22;7702;51.046;5.184;2022-07-29T00:23:47;18.00;99.90
15203;DHT22;7702;51.046;5.184;2022-07-29T00:26:12;17.90;99.90
15203;DHT22;7702;51.046;5.184;2022-07-29T00:28:38;17.80;99.90
15203;DHT22;7702;51.046;5.184;2022-07-29T00:31:04;17.80;99.90
15203;DHT22;7702;51.046;5.184;2022-07-29T00:33:29;17.80;99.90
15203;DHT22;7702;51.046;5.184;2022-07-29T00:35:55;17.70;99.90
15203;DHT22;7702;51.046;5.184;2022-07-29T00:38:21;17.70;99.90
15203;DHT22;7702;51.046;5.184;2022-07-29T00:40:47;17.70;99.90
15203;DHT22;7702;51.046;5.184;2022-07-29T00:43:14;17.70;99.90
15203;DHT22;7702;51.046;5.184;2022-07-29T00:45:40;17.70;99.90
15203;DHT22;7702;51.046;5.184;2022-07-29T00:48:06;17.60;99.90
15203;DHT22;7702;51.046;5.184;2022-07-29T00:50:34;17.70;99.90
15203;DHT22;7702;51.046;5.184;2022-07-29T00:53:03;17.70;99.90
15203;DHT22;7702;51.046;5.184;2022-07-29T00:55:29;17.70;99.90
15203;DHT22;7702;51.046;5.184;2022-07-29T00:57:55;17.60;99.90
15203;DHT22;7702;51.046;5.184;2022-07-29T01:00:25;17.60;99.90
15203;DHT22;7702;51.046;5.184;2022-07-29T01:02:51;17.50;99.90
15203;DHT22;7702;51.046;5.184;2022-07-29T01:05:18;17.50;99.90
15203;DHT22;7702;51.046;5.184;2022-07-29T01:07:44;17.60;99.90
15203;DHT22;7702;51.046;5.184;2022-07-29T01:10:12;17.60;99.90
15203;DHT22;7702;51.046;5.184;2022-07-29T01:12:39;17.60;99.90
15203;DHT22;7702;51.046;5.184;2022-07-29T01:15:06;17.60;99.90
15203;DHT22;7702;51.046;5.184;2022-07-29T01:17:52;17.50;99.90
15203;DHT22;7702;51.046;5.184;2022-07-29T01:26:30;17.40;99.90
15203;DHT22;7702;51.046;5.184;2022-07-29T01:29:06;17.40;99.90
15203;DHT22;7702;51.046;5.184;2022-07-29T01:31:35;17.40;99.90
15203;DHT22;7702;51.046;5.184;2022-07-29T01:34:07;17.40;99.90
15203;DHT22;7702;51.046;5.184;2022-07-29T01:36:37;17.40;99.90
15203;DHT22;7702;51.046;5.184;2022-07-29T01:39:11;17.30;99.90
15203;DHT22;7702;51.046;5.184;2022-07-29T01:41:42;17.40;99.90
15203;DHT22;7702;51.046;5.184;2022-07-29T01:44:19;17.30;99.90
15203;DHT22;7702;51.046;5.184;2022-07-29T01:46:58;17.30;99.90
15203;DHT22;7702;51.046;5.184;2022-07-29T01:49:27;17.20;99.90
15203;DHT22;7702;51.046;5.184;2022-07-29T01:51:59;17.30;99.90
15203;DHT22;7702;51.046;5.184;2022-07-29T01:54:43;17.30;99.90
15203;DHT22;7702;51.046;5.184;2022-07-29T01:57:13;17.30;99.90
15203;DHT22;7702;51.046;5.184;2022-07-29T01:59:40;17.30;99.90
15203;DHT22;7702;51.046;5.184;2022-07-29T02:02:08;17.30;99.90
15203;DHT22;7702;51.046;5.184;2022-07-29T02:04:36;17.30;99.90
15203;DHT22;7702;51.046;5.184;2022-07-29T02:07:05;17.40;99.90
15203;DHT22;7702;51.046;5.184;2022-07-29T02:09:34;17.30;99.90
15203;DHT22;7702;51.046;5.184;2022-07-29T02:12:02;17.20;99.90
15203;DHT22;7702;51.046;5.184;2022-07-29T02:14:34;17.20;99.90
15203;DHT22;7702;51.046;5.184;2022-07-29T02:17:02;17.10;99.90
15203;DHT22;7702;51.046;5.184;2022-07-29T02:19:29;17.00;99.90
15203;DHT22;7702;51.046;5.184;2022-07-29T02:21:58;17.00;99.90
15203;DHT22;7702;51.046;5.184;2022-07-29T02:24:25;16.90;99.90
15203;DHT22;7702;51.046;5.184;2022-07-29T02:26:54;16.90;99.90
15203;DHT22;7702;51.046;5.184;2022-07-29T02:29:23;16.90;99.90
15203;DHT22;7702;51.046;5.184;2022-07-29T02:31:51;16.90;99.90
15203;DHT22;7702;51.046;5.184;2022-07-29T02:34:18;16.90;99.90
15203;DHT22;7702;51.046;5.184;2022-07-29T02:36:45;16.90;99.90
15203;DHT22;7702;51.046;5.184;2022-07-29T02:39:12;16.90;99.90
15203;DHT22;7702;51.046;5.184;2022-07-29T02:41:46;16.80;99.90
15203;DHT22;7702;51.046;5.184;2022-07-29T02:44:15;16.70;99.90
15203;DHT22;7702;51.046;5.184;2022-07-29T02:47:10;16.80;99.90
15203;DHT22;7702;51.046;5.184;2022-07-29T02:52:17;16.60;99.90
15203;DHT22;7702;51.046;5.184;2022-07-29T02:57:34;16.50;99.90
15203;DHT22;7702;51.046;5.184;2022-07-29T03:00:07;16.50;99.90
15203;DHT22;7702;51.046;5.184;2022-07-29T03:02:36;16.40;99.90
15203;DHT22;7702;51.046;5.184;2022-07-29T03:05:04;16.40;99.90
15203;DHT22;7702;51.046;5.184;2022-07-29T03:07:31;16.30;99.90
15203;DHT22;7702;51.046;5.184;2022-07-29T03:09:58;16.30;99.90
15203;DHT22;7702;51.046;5.184;2022-07-29T03:12:24;16.40;99.90
15203;DHT22;7702;51.046;5.184;2022-07-29T03:14:51;16.40;99.90
15203;DHT22;7702;51.046;5.184;2022-07-29T03:17:18;16.40;99.90
15203;DHT22;7702;51.046;5.184;2022-07-29T03:19:44;16.40;99.90
15203;DHT22;7702;51.046;5.184;2022-07-29T03:22:10;16.30;99.90
15203;DHT22;7702;51.046;5.184;2022-07-29T03:24:36;16.30;99.90
15203;DHT22;7702;51.046;5.184;2022-07-29T03:27:03;16.30;99.90
15203;DHT22;7702;51.046;5.184;2022-07-29T03:29:29;16.20;99.90
15203;DHT22;7702;51.046;5.184;2022-07-29T03:31:55;16.20;99.90
15203;DHT22;7702;51.046;5.184;2022-07-29T03:34:22;16.20;99.90
15203;DHT22;7702;51.046;5.184;2022-07-29T03:36:48;16.30;99.90
15203;DHT22;7702;51.046;5.184;2022-07-29T03:39:21;16.20;99.90
15203;DHT22;7702;51.046;5.184;2022-07-29T03:41:52;16.20;99.90
15203;DHT22;7702;51.046;5.184;2022-07-29T03:44:19;16.20;99.90
15203;DHT22;7702;51.046;5.184;2022-07-29T03:46:48;16.10;99.90
15203;DHT22;7702;51.046;5.184;2022-07-29T03:49:16;16.10;99.90
15203;DHT22;7702;51.046;5.184;2022-07-29T03:51:42;16.10;99.90
15203;DHT22;7702;51.046;5.184;2022-07-29T03:54:08;16.10;99.90
15203;DHT22;7702;51.046;5.184;2022-07-29T03:56:37;16.10;99.90
15203;DHT22;7702;51.046;5.184;2022-07-29T03:59:03;16.10;99.90
15203;DHT22;7702;51.046;5.184;2022-07-29T04:01:30;16.10;99.90
15203;DHT22;7702;51.046;5.184;2022-07-29T04:03:57;16.00;99.90
15203;DHT22;7702;51.046;5.184;2022-07-29T04:06:23;16.00;99.90
15203;DHT22;7702;51.046;5.184;2022-07-29T04:08:51;16.00;99.90
15203;DHT22;7702;51.046;5.184;2022-07-29T04:11:16;16.00;99.90
15203;DHT22;7702;51.046;5.184;2022-07-29T04:13:43;16.00;99.90
15203;DHT22;7702;51.046;5.184;2022-07-29T04:16:08;15.90;99.90
15203;DHT22;7702;51.046;5.184;2022-07-29T04:18:34;16.00;99.90
15203;DHT22;7702;51.046;5.184;2022-07-29T04:21:00;16.00;99.90
15203;DHT22;7702;51.046;5.184;2022-07-29T04:23:27;16.00;99.90
15203;DHT22;7702;51.046;5.184;2022-07-29T04:25:54;16.00;99.90
15203;DHT22;7702;51.046;5.184;2022-07-29T04:28:20;16.00;99.90
15203;DHT22;7702;51.046;5.184;2022-07-29T04:30:45;16.00;99.90
15203;DHT22;7702;51.046;5.184;2022-07-29T04:33:11;16.10;99.90
15203;DHT22;7702;51.046;5.184;2022-07-29T04:35:37;16.00;99.90
15203;DHT22;7702;51.046;5.184;2022-07-29T04:38:04;16.00;99.90
15203;DHT22;7702;51.046;5.184;2022-07-29T04:40:31;16.00;99.90
15203;DHT22;7702;51.046;5.184;2022-07-29T04:42:59;16.00;99.90
15203;DHT22;7702;51.046;5.184;2022-07-29T04:45:24;16.00;99.90
15203;DHT22;7702;51.046;5.184;2022-07-29T04:47:50;16.10;99.90
15203;DHT22;7702;51.046;5.184;2022-07-29T04:50:16;16.10;99.90
15203;DHT22;7702;51.046;5.184;2022-07-29T04:52:42;16.10;99.90
15203;DHT22;7702;51.046;5.184;2022-07-29T04:55:09;16.10;99.90
15203;DHT22;7702;51.046;5.184;2022-07-29T04:57:34;16.10;99.90
15203;DHT22;7702;51.046;5.184;2022-07-29T05:00:00;16.20;99.90
15203;DHT22;7702;51.046;5.184;2022-07-29T05:02:26;16.10;99.90
15203;DHT22;7702;51.046;5.184;2022-07-29T05:04:52;16.20;99.90
15203;DHT22;7702;51.046;5.184;2022-07-29T05:07:18;16.10;99.90
15203;DHT22;7702;51.046;5.184;2022-07-29T05:09:44;16.20;99.90
15203;DHT22;7702;51.046;5.184;2022-07-29T05:12:09;16.10;99.90
15203;DHT22;7702;51.046;5.184;2022-07-29T05:14:35;16.00;99.90
15203;DHT22;7702;51.046;5.184;2022-07-29T05:17:00;16.00;99.90
15203;DHT22;7702;51.046;5.184;2022-07-29T05:19:26;16.00;99.90
15203;DHT22;7702;51.046;5.184;2022-07-29T05:21:52;16.00;99.90
15203;DHT22;7702;51.046;5.184;2022-07-29T05:24:17;16.00;99.90
15203;DHT22;7702;51.046;5.184;2022-07-29T05:26:43;16.00;99.90
15203;DHT22;7702;51.046;5.184;2022-07-29T05:29:09;15.90;99.90
15203;DHT22;7702;51.046;5.184;2022-07-29T05:31:34;15.90;99.90
15203;DHT22;7702;51.046;5.184;2022-07-29T05:34:01;15.90;99.90
15203;DHT22;7702;51.046;5.184;2022-07-29T05:36:26;15.80;99.90
15203;DHT22;7702;51.046;5.184;2022-07-29T05:38:52;15.80;99.90
15203;DHT22;7702;51.046;5.184;2022-07-29T05:41:21;15.90;99.90
15203;DHT22;7702;51.046;5.184;2022-07-29T05:43:47;16.00;99.90
15203;DHT22;7702;51.046;5.184;2022-07-29T05:46:12;16.00;99.90
15203;DHT22;7702;51.046;5.184;2022-07-29T05:48:39;16.20;99.90
15203;DHT22;7702;51.046;5.184;2022-07-29T05:51:05;16.30;99.90
15203;DHT22;7702;51.046;5.184;2022-07-29T05:53:31;16.50;99.90
15203;DHT22;7702;51.046;5.184;2022-07-29T05:55:56;16.70;99.90
15203;DHT22;7702;51.046;5.184;2022-07-29T05:58:22;16.90;99.90
15203;DHT22;7702;51.046;5.184;2022-07-29T06:00:47;17.00;99.90
15203;DHT22;7702;51.046;5.184;2022-07-29T06:03:13;17.10;99.90
15203;DHT22;7702;51.046;5.184;2022-07-29T06:05:39;17.10;99.90
15203;DHT22;7702;51.046;5.184;2022-07-29T06:08:05;17.30;99.90
15203;DHT22;7702;51.046;5.184;2022-07-29T06:10:37;17.30;99.90
15203;DHT22;7702;51.046;5.184;2022-07-29T06:13:03;17.40;99.90
15203;DHT22;7702;51.046;5.184;2022-07-29T06:15:29;17.40;99.90
15203;DHT22;7702;51.046;5.184;2022-07-29T06:17:54;17.40;99.90
15203;DHT22;7702;51.046;5.184;2022-07-29T06:20:20;17.40;99.90
15203;DHT22;7702;51.046;5.184;2022-07-29T06:22:46;17.50;99.90
15203;DHT22;7702;51.046;5.184;2022-07-29T06:25:11;17.60;99.90
15203;DHT22;7702;51.046;5.184;2022-07-29T06:27:37;17.90;99.90
15203;DHT22;7702;51.046;5.184;2022-07-29T06:30:03;18.00;99.90
15203;DHT22;7702;51.046;5.184;2022-07-29T06:32:32;18.20;99.90
15203;DHT22;7702;51.046;5.184;2022-07-29T06:34:57;18.20;99.90
15203;DHT22;7702;51.046;5.184;2022-07-29T06:37:23;18.20;99.90
15203;DHT22;7702;51.046;5.184;2022-07-29T06:39:48;18.40;99.90
15203;DHT22;7702;51.046;5.184;2022-07-29T06:42:34;18.70;99.90
15203;DHT22;7702;51.046;5.184;2022-07-29T06:45:00;18.70;99.90
15203;DHT22;7702;51.046;5.184;2022-07-29T06:47:25;18.70;99.90
15203;DHT22;7702;51.046;5.184;2022-07-29T06:49:51;18.90;99.90
15203;DHT22;7702;51.046;5.184;2022-07-29T06:52:17;18.90;99.90
15203;DHT22;7702;51.046;5.184;2022-07-29T06:54:42;19.10;99.90
15203;DHT22;7702;51.046;5.184;2022-07-29T06:57:13;19.10;99.90
15203;DHT22;7702;51.046;5.184;2022-07-29T06:59:39;19.30;99.90
15203;DHT22;7702;51.046;5.184;2022-07-29T07:02:04;19.60;99.90
15203;DHT22;7702;51.046;5.184;2022-07-29T07:04:30;19.40;99.90
15203;DHT22;7702;51.046;5.184;2022-07-29T07:06:56;19.40;99.90
15203;DHT22;7702;51.046;5.184;2022-07-29T07:09:21;19.70;99.90
15203;DHT22;7702;51.046;5.184;2022-07-29T07:11:47;19.90;99.90
15203;DHT22;7702;51.046;5.184;2022-07-29T07:14:13;19.90;99.90
15203;DHT22;7702;51.046;5.184;2022-07-29T07:16:39;19.40;99.90
15203;DHT22;7702;51.046;5.184;2022-07-29T07:19:04;19.40;99.90
15203;DHT22;7702;51.046;5.184;2022-07-29T07:21:30;19.40;99.90
15203;DHT22;7702;51.046;5.184;2022-07-29T07:23:58;19.90;99.90
15203;DHT22;7702;51.046;5.184;2022-07-29T07:26:25;20.30;99.90
15203;DHT22;7702;51.046;5.184;2022-07-29T07:28:51;20.60;99.90
15203;DHT22;7702;51.046;5.184;2022-07-29T07:31:17;21.00;99.90
15203;DHT22;7702;51.046;5.184;2022-07-29T07:33:43;21.10;99.90
15203;DHT22;7702;51.046;5.184;2022-07-29T07:36:09;21.20;99.90
15203;DHT22;7702;51.046;5.184;2022-07-29T07:38:34;21.00;99.90
15203;DHT22;7702;51.046;5.184;2022-07-29T07:41:01;20.80;99.90
15203;DHT22;7702;51.046;5.184;2022-07-29T07:43:27;21.00;99.90
15203;DHT22;7702;51.046;5.184;2022-07-29T07:45:52;21.30;99.90
15203;DHT22;7702;51.046;5.184;2022-07-29T07:48:18;21.80;99.90
15203;DHT22;7702;51.046;5.184;2022-07-29T07:50:44;22.10;99.90
15203;DHT22;7702;51.046;5.184;2022-07-29T07:53:10;22.30;99.90
15203;DHT22;7702;51.046;5.184;2022-07-29T07:55:42;22.40;99.90
15203;DHT22;7702;51.046;5.184;2022-07-29T07:58:08;22.80;99.90
15203;DHT22;7702;51.046;5.184;2022-07-29T08:00:34;23.10;99.90
15203;DHT22;7702;51.046;5.184;2022-07-29T08:03:00;23.20;99.90
15203;DHT22;7702;51.046;5.184;2022-07-29T08:05:26;23.10;99.90
15203;DHT22;7702;51.046;5.184;2022-07-29T08:07:52;22.80;99.90
15203;DHT22;7702;51.046;5.184;2022-07-29T08:10:18;22.70;99.90
15203;DHT22;7702;51.046;5.184;2022-07-29T08:13:06;22.80;99.90
15203;DHT22;7702;51.046;5.184;2022-07-29T08:15:32;23.40;99.90
15203;DHT22;7702;51.046;5.184;2022-07-29T08:17:58;23.40;99.90
15203;DHT22;7702;51.046;5.184;2022-07-29T08:20:24;23.50;99.90
15203;DHT22;7702;51.046;5.184;2022-07-29T08:22:50;23.00;99.90
15203;DHT22;7702;51.046;5.184;2022-07-29T08:25:15;23.20;99.90
15203;DHT22;7702;51.046;5.184;2022-07-29T08:27:43;23.80;99.90
15203;DHT22;7702;51.046;5.184;2022-07-29T08:30:09;23.80;99.90
15203;DHT22;7702;51.046;5.184;2022-07-29T08:32:35;24.00;99.90
15203;DHT22;7702;51.046;5.184;2022-07-29T08:35:01;24.30;99.90
15203;DHT22;7702;51.046;5.184;2022-07-29T08:37:27;23.80;99.90
15203;DHT22;7702;51.046;5.184;2022-07-29T08:39:52;24.10;99.90
15203;DHT22;7702;51.046;5.184;2022-07-29T08:42:18;24.70;99.90
15203;DHT22;7702;51.046;5.184;2022-07-29T08:44:44;25.20;99.90
15203;DHT22;7702;51.046;5.184;2022-07-29T08:47:10;25.20;99.90
15203;DHT22;7702;51.046;5.184;2022-07-29T08:49:39;24.60;99.90
15203;DHT22;7702;51.046;5.184;2022-07-29T08:52:06;25.10;99.90
15203;DHT22;7702;51.046;5.184;2022-07-29T08:54:32;25.40;99.90
15203;DHT22;7702;51.046;5.184;2022-07-29T08:56:59;25.40;99.90
15203;DHT22;7702;51.046;5.184;2022-07-29T08:59:27;26.00;99.90
15203;DHT22;7702;51.046;5.184;2022-07-29T09:01:54;25.90;99.90
15203;DHT22;7702;51.046;5.184;2022-07-29T09:04:24;26.00;99.90
15203;DHT22;7702;51.046;5.184;2022-07-29T09:06:54;25.50;99.90
15203;DHT22;7702;51.046;5.184;2022-07-29T09:09:22;26.10;99.90
15203;DHT22;7702;51.046;5.184;2022-07-29T09:11:47;26.00;99.90
15203;DHT22;7702;51.046;5.184;2022-07-29T09:14:14;25.00;99.90
15203;DHT22;7702;51.046;5.184;2022-07-29T09:16:54;24.50;99.90
15203;DHT22;7702;51.046;5.184;2022-07-29T09:19:26;24.90;99.90
15203;DHT22;7702;51.046;5.184;2022-07-29T09:21:53;25.60;99.90
15203;DHT22;7702;51.046;5.184;2022-07-29T09:27:03;26.60;99.90
15203;DHT22;7702;51.046;5.184;2022-07-29T09:29:33;26.90;99.90
15203;DHT22;7702;51.046;5.184;2022-07-29T09:31:59;26.70;99.90
15203;DHT22;7702;51.046;5.184;2022-07-29T09:34:28;25.80;99.90
15203;DHT22;7702;51.046;5.184;2022-07-29T09:36:55;25.40;99.90
15203;DHT22;7702;51.046;5.184;2022-07-29T09:39:35;25.50;99.90
15203;DHT22;7702;51.046;5.184;2022-07-29T09:42:05;25.50;99.90
15203;DHT22;7702;51.046;5.184;2022-07-29T09:44:46;24.70;99.90
15203;DHT22;7702;51.046;5.184;2022-07-29T09:47:13;24.50;99.90
15203;DHT22;7702;51.046;5.184;2022-07-29T09:50:07;24.90;99.90
15203;DHT22;7702;51.046;5.184;2022-07-29T09:52:48;26.00;99.90
15203;DHT22;7702;51.046;5.184;2022-07-29T09:55:14;26.40;99.90
15203;DHT22;7702;51.046;5.184;2022-07-29T09:57:40;26.40;99.90
15203;DHT22;7702;51.046;5.184;2022-07-29T10:02:39;27.40;99.90
15203;DHT22;7702;51.046;5.184;2022-07-29T10:05:23;27.40;99.90
15203;DHT22;7702;51.046;5.184;2022-07-29T10:07:55;27.60;99.90
15203;DHT22;7702;51.046;5.184;2022-07-29T10:10:31;27.40;99.90
15203;DHT22;7702;51.046;5.184;2022-07-29T10:13:05;27.80;99.90
15203;DHT22;7702;51.046;5.184;2022-07-29T10:15:36;28.20;99.90
15203;DHT22;7702;51.046;5.184;2022-07-29T10:18:07;28.10;99.90
15203;DHT22;7702;51.046;5.184;2022-07-29T10:20:34;28.60;99.90
15203;DHT22;7702;51.046;5.184;2022-07-29T10:23:00;29.10;99.90
15203;DHT22;7702;51.046;5.184;2022-07-29T10:25:26;28.10;99.90
15203;DHT22;7702;51.046;5.184;2022-07-29T10:27:53;28.30;99.90
15203;DHT22;7702;51.046;5.184;2022-07-29T10:30:20;28.20;99.90
15203;DHT22;7702;51.046;5.184;2022-07-29T10:35:44;27.10;99.90
15203;DHT22;7702;51.046;5.184;2022-07-29T10:38:27;26.60;99.90
15203;DHT22;7702;51.046;5.184;2022-07-29T10:41:19;27.40;99.90
15203;DHT22;7702;51.046;5.184;2022-07-29T10:46:25;29.00;99.90
15203;DHT22;7702;51.046;5.184;2022-07-29T10:54:39;30.10;99.90
15203;DHT22;7702;51.046;5.184;2022-07-29T10:59:42;29.50;99.90
15203;DHT22;7702;51.046;5.184;2022-07-29T11:07:32;27.90;99.90
15203;DHT22;7702;51.046;5.184;2022-07-29T11:10:29;28.70;99.90
15203;DHT22;7702;51.046;5.184;2022-07-29T11:12:54;29.00;99.90
15203;DHT22;7702;51.046;5.184;2022-07-29T11:15:21;29.60;99.90
15203;DHT22;7702;51.046;5.184;2022-07-29T11:23:28;30.50;99.90
15203;DHT22;7702;51.046;5.184;2022-07-29T11:26:18;30.30;99.60
15203;DHT22;7702;51.046;5.184;2022-07-29T11:28:59;29.30;99.90
15203;DHT22;7702;51.046;5.184;2022-07-29T11:34:31;27.80;99.90
15203;DHT22;7702;51.046;5.184;2022-07-29T11:50:15;29.20;99.90
15203;DHT22;7702;51.046;5.184;2022-07-29T11:52:47;29.10;99.90
15203;DHT22;7702;51.046;5.184;2022-07-29T11:55:18;28.90;99.90
15203;DHT22;7702;51.046;5.184;2022-07-29T11:57:52;28.70;99.90
15203;DHT22;7702;51.046;5.184;2022-07-29T12:00:41;27.80;99.90
15203;DHT22;7702;51.046;5.184;2022-07-29T12:03:10;27.80;99.90
15203;DHT22;7702;51.046;5.184;2022-07-29T12:05:43;28.70;99.90
15203;DHT22;7702;51.046;5.184;2022-07-29T12:08:21;29.60;99.90
15203;DHT22;7702;51.046;5.184;2022-07-29T12:10:49;29.60;99.20
15203;DHT22;7702;51.046;5.184;2022-07-29T12:13:17;30.40;96.60
15203;DHT22;7702;51.046;5.184;2022-07-29T12:15:52;31.10;94.50
15203;DHT22;7702;51.046;5.184;2022-07-29T12:18:19;31.10;95.00
15203;DHT22;7702;51.046;5.184;2022-07-29T12:20:46;31.40;93.00
15203;DHT22;7702;51.046;5.184;2022-07-29T12:23:12;31.80;93.90
15203;DHT22;7702;51.046;5.184;2022-07-29T12:25:41;32.50;92.80
15203;DHT22;7702;51.046;5.184;2022-07-29T12:28:09;32.10;90.20
15203;DHT22;7702;51.046;5.184;2022-07-29T12:30:40;31.00;91.90
15203;DHT22;7702;51.046;5.184;2022-07-29T12:33:20;29.80;93.80
15203;DHT22;7702;51.046;5.184;2022-07-29T12:35:54;29.20;93.20
15203;DHT22;7702;51.046;5.184;2022-07-29T12:38:21;28.40;93.60
15203;DHT22;7702;51.046;5.184;2022-07-29T12:40:48;27.50;95.40
15203;DHT22;7702;51.046;5.184;2022-07-29T12:43:21;27.30;96.10
15203;DHT22;7702;51.046;5.184;2022-07-29T12:45:50;27.50;95.90
15203;DHT22;7702;51.046;5.184;2022-07-29T12:48:18;27.80;97.50
15203;DHT22;7702;51.046;5.184;2022-07-29T12:51:00;28.60;96.40
15203;DHT22;7702;51.046;5.184;2022-07-29T12:53:26;30.20;94.90
15203;DHT22;7702;51.046;5.184;2022-07-29T12:55:54;30.60;92.20
15203;DHT22;7702;51.046;5.184;2022-07-29T13:01:06;31.30;91.10
15203;DHT22;7702;51.046;5.184;2022-07-29T13:03:56;31.30;90.90
15203;DHT22;7702;51.046;5.184;2022-07-29T13:06:31;31.30;91.30
15203;DHT22;7702;51.046;5.184;2022-07-29T13:11:43;29.80;92.00
15203;DHT22;7702;51.046;5.184;2022-07-29T13:14:11;29.10;92.50
15203;DHT22;7702;51.046;5.184;2022-07-29T13:17:10;28.60;96.40
15203;DHT22;7702;51.046;5.184;2022-07-29T13:19:44;29.40;95.10
15203;DHT22;7702;51.046;5.184;2022-07-29T13:22:19;29.80;93.40
15203;DHT22;7702;51.046;5.184;2022-07-29T13:27:16;30.20;93.50
15203;DHT22;7702;51.046;5.184;2022-07-29T13:29:42;30.90;93.00
15203;DHT22;7702;51.046;5.184;2022-07-29T13:32:08;31.00;91.50
15203;DHT22;7702;51.046;5.184;2022-07-29T13:34:34;31.70;89.60
15203;DHT22;7702;51.046;5.184;2022-07-29T13:37:00;31.60;89.10
15203;DHT22;7702;51.046;5.184;2022-07-29T13:39:25;31.90;89.50
15203;DHT22;7702;51.046;5.184;2022-07-29T13:41:51;32.80;86.60
15203;DHT22;7702;51.046;5.184;2022-07-29T13:44:17;33.60;83.60
15203;DHT22;7702;51.046;5.184;2022-07-29T13:46:43;33.80;82.30
15203;DHT22;7702;51.046;5.184;2022-07-29T13:49:09;33.60;79.60
15203;DHT22;7702;51.046;5.184;2022-07-29T13:51:36;33.50;77.80
15203;DHT22;7702;51.046;5.184;2022-07-29T13:54:02;33.60;77.40
15203;DHT22;7702;51.046;5.184;2022-07-29T13:56:28;33.30;77.90
15203;DHT22;7702;51.046;5.184;2022-07-29T13:58:54;32.50;78.60
15203;DHT22;7702;51.046;5.184;2022-07-29T14:01:19;31.90;75.90
15203;DHT22;7702;51.046;5.184;2022-07-29T14:03:45;31.90;77.20
15203;DHT22;7702;51.046;5.184;2022-07-29T14:06:11;30.30;77.50
15203;DHT22;7702;51.046;5.184;2022-07-29T14:08:36;30.60;82.10
15203;DHT22;7702;51.046;5.184;2022-07-29T14:11:03;30.40;80.10
15203;DHT22;7702;51.046;5.184;2022-07-29T14:13:28;29.90;81.10
15203;DHT22;7702;51.046;5.184;2022-07-29T14:15:54;29.00;82.70
15203;DHT22;7702;51.046;5.184;2022-07-29T14:18:20;28.80;83.40
15203;DHT22;7702;51.046;5.184;2022-07-29T14:20:45;28.40;82.60
15203;DHT22;7702;51.046;5.184;2022-07-29T14:23:11;28.90;82.20
15203;DHT22;7702;51.046;5.184;2022-07-29T14:25:37;28.90;80.80
15203;DHT22;7702;51.046;5.184;2022-07-29T14:28:03;29.30;81.50
15203;DHT22;7702;51.046;5.184;2022-07-29T14:30:28;29.60;81.80
15203;DHT22;7702;51.046;5.184;2022-07-29T14:32:54;30.30;83.40
15203;DHT22;7702;51.046;5.184;2022-07-29T14:35:19;29.80;79.10
15203;DHT22;7702;51.046;5.184;2022-07-29T14:37:45;29.50;81.60
15203;DHT22;7702;51.046;5.184;2022-07-29T14:40:11;29.60;80.60
15203;DHT22;7702;51.046;5.184;2022-07-29T14:42:38;30.20;81.40
15203;DHT22;7702;51.046;5.184;2022-07-29T14:45:05;31.30;81.40
15203;DHT22;7702;51.046;5.184;2022-07-29T14:47:31;32.00;77.40
15203;DHT22;7702;51.046;5.184;2022-07-29T14:49:56;31.80;77.20
15203;DHT22;7702;51.046;5.184;2022-07-29T14:52:23;31.70;74.80
15203;DHT22;7702;51.046;5.184;2022-07-29T14:54:48;29.80;76.50
15203;DHT22;7702;51.046;5.184;2022-07-29T14:57:14;28.40;80.80
15203;DHT22;7702;51.046;5.184;2022-07-29T14:59:40;27.90;82.20
15203;DHT22;7702;51.046;5.184;2022-07-29T15:02:06;28.20;81.60
15203;DHT22;7702;51.046;5.184;2022-07-29T15:04:31;28.30;83.90
15203;DHT22;7702;51.046;5.184;2022-07-29T15:06:57;28.60;82.60
15203;DHT22;7702;51.046;5.184;2022-07-29T15:09:23;29.30;85.00
15203;DHT22;7702;51.046;5.184;2022-07-29T15:11:49;30.20;82.10
15203;DHT22;7702;51.046;5.184;2022-07-29T15:14:14;30.20;81.50
15203;DHT22;7702;51.046;5.184;2022-07-29T15:16:40;30.90;80.30
15203;DHT22;7702;51.046;5.184;2022-07-29T15:19:08;30.30;76.70
15203;DHT22;7702;51.046;5.184;2022-07-29T15:21:33;29.50;76.50
15203;DHT22;7702;51.046;5.184;2022-07-29T15:23:59;29.20;78.30
15203;DHT22;7702;51.046;5.184;2022-07-29T15:26:25;28.60;78.90
15203;DHT22;7702;51.046;5.184;2022-07-29T15:28:50;28.00;80.50
15203;DHT22;7702;51.046;5.184;2022-07-29T15:31:17;27.40;81.20
15203;DHT22;7702;51.046;5.184;2022-07-29T15:33:44;27.20;81.90
15203;DHT22;7702;51.046;5.184;2022-07-29T15:36:10;27.20;83.00
15203;DHT22;7702;51.046;5.184;2022-07-29T15:38:38;27.60;83.70
15203;DHT22;7702;51.046;5.184;2022-07-29T15:41:06;27.60;80.70
15203;DHT22;7702;51.046;5.184;2022-07-29T15:43:32;27.20;82.70
15203;DHT22;7702;51.046;5.184;2022-07-29T15:45:57;27.20;83.90
15203;DHT22;7702;51.046;5.184;2022-07-29T15:48:41;27.10;82.80
15203;DHT22;7702;51.046;5.184;2022-07-29T15:51:07;26.80;83.90
15203;DHT22;7702;51.046;5.184;2022-07-29T15:53:33;26.60;85.40
15203;DHT22;7702;51.046;5.184;2022-07-29T15:55:58;26.40;85.10
15203;DHT22;7702;51.046;5.184;2022-07-29T15:58:24;26.30;85.70
15203;DHT22;7702;51.046;5.184;2022-07-29T16:00:50;26.10;86.70
15203;DHT22;7702;51.046;5.184;2022-07-29T16:03:15;26.00;88.10
15203;DHT22;7702;51.046;5.184;2022-07-29T16:05:41;25.90;86.80
15203;DHT22;7702;51.046;5.184;2022-07-29T16:08:07;25.90;88.20
15203;DHT22;7702;51.046;5.184;2022-07-29T16:10:33;25.90;87.50
15203;DHT22;7702;51.046;5.184;2022-07-29T16:12:59;26.00;86.80
15203;DHT22;7702;51.046;5.184;2022-07-29T16:15:24;26.10;88.30
15203;DHT22;7702;51.046;5.184;2022-07-29T16:17:50;25.90;87.80
15203;DHT22;7702;51.046;5.184;2022-07-29T16:20:16;25.90;88.60
15203;DHT22;7702;51.046;5.184;2022-07-29T16:22:41;26.00;88.50
15203;DHT22;7702;51.046;5.184;2022-07-29T16:25:08;26.10;89.80
15203;DHT22;7702;51.046;5.184;2022-07-29T16:27:33;26.20;89.30
15203;DHT22;7702;51.046;5.184;2022-07-29T16:29:59;26.40;89.90
15203;DHT22;7702;51.046;5.184;2022-07-29T16:32:25;26.60;89.90
15203;DHT22;7702;51.046;5.184;2022-07-29T16:34:51;26.60;89.00
15203;DHT22;7702;51.046;5.184;2022-07-29T16:37:16;26.60;88.80
15203;DHT22;7702;51.046;5.184;2022-07-29T16:39:42;27.40;89.00
15203;DHT22;7702;51.046;5.184;2022-07-29T16:42:08;27.60;86.60
15203;DHT22;7702;51.046;5.184;2022-07-29T16:44:34;27.70;86.50
15203;DHT22;7702;51.046;5.184;2022-07-29T16:46:59;27.40;84.90
15203;DHT22;7702;51.046;5.184;2022-07-29T16:49:26;27.00;86.90
15203;DHT22;7702;51.046;5.184;2022-07-29T16:51:52;26.90;86.70
15203;DHT22;7702;51.046;5.184;2022-07-29T16:54:18;27.20;87.00
15203;DHT22;7702;51.046;5.184;2022-07-29T16:56:44;27.10;88.10